createdAt,value
2023-05-16T00:00:38.232Z,45.40
2023-05-16T00:03:06.493Z,45.40
2023-05-16T00:05:33.341Z,45.52
2023-05-16T00:08:00.065Z,45.48
2023-05-16T00:10:26.982Z,45.67
2023-05-16T00:12:54.062Z,45.74
2023-05-16T00:15:20.797Z,45.78
2023-05-16T00:17:47.844Z,45.82
2023-05-16T00:20:17.430Z,45.88
2023-05-16T00:22:44.532Z,46.10
2023-05-16T00:25:11.360Z,46.22
2023-05-16T00:27:38.214Z,46.28
2023-05-16T00:30:05.626Z,46.39
2023-05-16T00:32:32.393Z,46.65
2023-05-16T00:35:00.942Z,46.65
2023-05-16T00:37:27.805Z,46.88
2023-05-16T00:39:54.722Z,47.07
2023-05-16T00:42:21.612Z,47.05
2023-05-16T00:44:48.462Z,47.00
2023-05-16T00:47:16.574Z,47.04
2023-05-16T00:49:43.945Z,47.01
2023-05-16T00:52:11.664Z,47.22
2023-05-16T00:54:39.992Z,47.16
2023-05-16T00:57:07.020Z,47.26
2023-05-16T00:59:33.926Z,47.22
2023-05-16T01:02:00.972Z,47.15
2023-05-16T01:04:28.010Z,47.28
2023-05-16T01:06:56.397Z,47.27
2023-05-16T01:09:23.328Z,47.05
2023-05-16T01:12:36.641Z,46.76
2023-05-16T01:15:13.718Z,46.79
2023-05-16T01:17:46.283Z,46.62
2023-05-16T01:20:34.578Z,46.46
2023-05-16T01:25:39.145Z,46.27
2023-05-16T01:28:05.940Z,46.28
2023-05-16T01:30:37.191Z,46.32
2023-05-16T01:33:04.087Z,46.18
2023-05-16T01:35:31.120Z,46.31
2023-05-16T01:38:04.237Z,46.30
2023-05-16T01:40:35.614Z,46.58
2023-05-16T01:43:05.145Z,46.63
2023-05-16T01:45:35.029Z,46.98
2023-05-16T01:48:07.646Z,47.13
2023-05-16T01:50:36.906Z,47.40
2023-05-16T01:53:11.447Z,47.50
2023-05-16T01:55:48.997Z,47.60
2023-05-16T01:58:18.284Z,47.66
2023-05-16T02:00:45.107Z,47.81
2023-05-16T02:03:12.097Z,48.01
2023-05-16T02:05:39.218Z,48.28
2023-05-16T02:08:08.468Z,48.54
2023-05-16T02:10:35.314Z,48.69
2023-05-16T02:13:02.060Z,48.64
2023-05-16T02:15:29.065Z,48.91
2023-05-16T02:17:56.592Z,48.97
2023-05-16T02:20:23.442Z,48.85
2023-05-16T02:22:51.360Z,48.80
2023-05-16T02:25:18.465Z,49.11
2023-05-16T02:27:45.311Z,49.15
2023-05-16T02:30:12.909Z,49.06
2023-05-16T02:32:40.440Z,49.14
2023-05-16T02:35:08.496Z,48.91
2023-05-16T02:37:35.514Z,49.01
2023-05-16T02:40:04.061Z,49.01
2023-05-16T02:42:32.187Z,48.98
2023-05-16T02:44:58.974Z,49.00
2023-05-16T02:47:26.261Z,48.94
2023-05-16T02:49:53.178Z,48.81
2023-05-16T02:52:19.978Z,49.03
2023-05-16T02:54:48.856Z,48.89
2023-05-16T02:57:27.045Z,48.82
2023-05-16T02:59:53.853Z,48.91
2023-05-16T03:02:21.150Z,48.77
2023-05-16T03:04:48.101Z,48.80
2023-05-16T03:07:14.903Z,48.83
2023-05-16T03:09:41.996Z,48.72
2023-05-16T03:12:08.844Z,48.66
2023-05-16T03:14:35.951Z,48.71
2023-05-16T03:17:03.732Z,48.54
2023-05-16T03:19:30.597Z,48.59
2023-05-16T03:21:57.708Z,48.53
2023-05-16T03:24:25.413Z,48.58
2023-05-16T03:26:52.223Z,48.71
2023-05-16T03:29:21.089Z,48.78
2023-05-16T03:31:47.925Z,48.73
2023-05-16T03:34:14.726Z,48.81
2023-05-16T03:36:41.617Z,48.54
2023-05-16T03:39:08.904Z,48.67
2023-05-16T03:41:35.718Z,48.63
2023-05-16T03:44:02.479Z,48.66
2023-05-16T03:46:29.381Z,48.35
2023-05-16T03:48:56.327Z,48.34
2023-05-16T03:51:25.370Z,48.19
2023-05-16T03:53:52.105Z,48.03
2023-05-16T03:56:19.171Z,47.99
2023-05-16T03:58:46.098Z,48.03
2023-05-16T04:01:12.867Z,47.87
2023-05-16T04:03:39.981Z,47.99
2023-05-16T04:06:07.580Z,47.97
2023-05-16T04:08:34.582Z,48.06
2023-05-16T04:11:01.574Z,48.22
2023-05-16T04:13:28.316Z,48.29
2023-05-16T04:15:55.295Z,48.23
2023-05-16T04:18:22.243Z,48.22
2023-05-16T04:20:49.090Z,48.30
2023-05-16T04:23:16.952Z,48.26
2023-05-16T04:25:44.102Z,48.27
2023-05-16T04:28:11.283Z,48.23
2023-05-16T04:30:38.416Z,48.39
2023-05-16T04:33:05.495Z,48.41
2023-05-16T04:35:33.469Z,48.40
2023-05-16T04:38:00.311Z,48.52
2023-05-16T04:40:27.803Z,48.45
2023-05-16T04:42:55.536Z,47.91
2023-05-16T04:45:22.582Z,47.97
2023-05-16T04:47:49.421Z,47.75
2023-05-16T04:50:16.854Z,47.62
2023-05-16T04:52:43.686Z,47.36
2023-05-16T04:55:13.256Z,47.43
2023-05-16T04:57:40.126Z,46.33
2023-05-16T05:00:12.134Z,46.43
2023-05-16T05:02:39.116Z,46.14
2023-05-16T05:05:07.000Z,45.59
2023-05-16T05:07:34.340Z,45.33
2023-05-16T05:10:05.307Z,45.41
2023-05-16T05:12:32.061Z,45.79
2023-05-16T05:14:58.996Z,46.04
2023-05-16T05:17:25.934Z,46.30
2023-05-16T05:19:52.844Z,46.59
2023-05-16T05:22:19.767Z,47.23
2023-05-16T05:24:46.636Z,48.13
2023-05-16T05:27:13.427Z,47.12
2023-05-16T05:29:40.587Z,46.10
2023-05-16T05:32:08.892Z,45.59
2023-05-16T05:34:35.899Z,45.21
2023-05-16T05:37:02.879Z,44.83
2023-05-16T05:39:29.887Z,45.18
2023-05-16T05:41:56.614Z,45.07
2023-05-16T05:44:23.785Z,45.57
2023-05-16T05:46:51.436Z,45.75
2023-05-16T05:49:18.271Z,46.80
2023-05-16T05:51:45.179Z,46.69
2023-05-16T05:54:11.944Z,46.87
2023-05-16T05:56:38.738Z,47.60
2023-05-16T05:59:05.634Z,47.93
2023-05-16T06:01:32.443Z,47.60
2023-05-16T06:04:00.159Z,47.87
2023-05-16T06:06:29.422Z,48.14
2023-05-16T06:08:56.306Z,48.17
2023-05-16T06:11:23.461Z,48.87
2023-05-16T06:13:50.627Z,48.52
2023-05-16T06:16:17.584Z,48.79
2023-05-16T06:18:44.665Z,48.52
2023-05-16T06:21:11.600Z,48.01
2023-05-16T06:23:38.752Z,47.59
2023-05-16T06:26:05.566Z,47.79
2023-05-16T06:28:32.365Z,47.75
2023-05-16T06:30:59.189Z,48.04
2023-05-16T06:33:26.041Z,48.28
2023-05-16T06:35:52.954Z,48.09
2023-05-16T06:38:19.958Z,47.61
2023-05-16T06:40:46.961Z,47.05
2023-05-16T06:43:13.978Z,46.90
2023-05-16T06:45:41.436Z,46.70
2023-05-16T06:48:08.723Z,46.73
2023-05-16T06:50:36.016Z,46.80
2023-05-16T06:53:05.023Z,46.23
2023-05-16T06:55:31.839Z,46.09
2023-05-16T06:57:58.655Z,45.42
2023-05-16T07:00:25.871Z,45.55
2023-05-16T07:02:53.420Z,45.34
2023-05-16T07:05:20.369Z,45.28
2023-05-16T07:07:47.929Z,44.64
2023-05-16T07:10:16.121Z,44.43
2023-05-16T07:12:43.470Z,44.49
2023-05-16T07:15:10.936Z,44.45
2023-05-16T07:17:37.895Z,44.35
2023-05-16T07:20:06.657Z,44.57
2023-05-16T07:22:33.829Z,44.85
2023-05-16T07:25:04.548Z,45.15
2023-05-16T07:27:32.222Z,45.48
2023-05-16T07:29:59.069Z,45.47
2023-05-16T07:32:25.987Z,45.79
2023-05-16T07:34:52.817Z,45.96
2023-05-16T07:37:20.702Z,46.08
2023-05-16T07:39:47.555Z,46.18
2023-05-16T07:42:14.641Z,46.29
2023-05-16T07:44:41.940Z,46.33
2023-05-16T07:47:08.807Z,46.02
2023-05-16T07:49:35.701Z,46.16
2023-05-16T07:52:02.526Z,46.22
2023-05-16T07:54:29.837Z,46.44
2023-05-16T07:56:56.950Z,46.56
2023-05-16T07:59:23.800Z,46.76
2023-05-16T08:01:51.122Z,46.79
2023-05-16T08:04:18.298Z,47.04
2023-05-16T08:06:45.681Z,47.40
2023-05-16T08:09:12.505Z,47.68
2023-05-16T08:11:40.171Z,47.95
2023-05-16T08:14:07.096Z,48.34
2023-05-16T08:16:34.071Z,48.75
2023-05-16T08:19:01.170Z,49.55
2023-05-16T08:21:28.113Z,49.86
2023-05-16T08:23:55.022Z,49.74
2023-05-16T08:26:22.143Z,49.83
2023-05-16T08:28:49.686Z,50.04
2023-05-16T08:31:16.787Z,51.00
2023-05-16T08:33:43.821Z,51.83
2023-05-16T08:36:10.837Z,52.61
2023-05-16T08:38:37.678Z,52.88
2023-05-16T08:41:04.820Z,53.39
2023-05-16T08:43:31.965Z,53.64
2023-05-16T08:45:59.472Z,54.51
2023-05-16T08:48:26.728Z,55.13
2023-05-16T08:50:53.782Z,55.76
2023-05-16T08:53:28.008Z,56.26
2023-05-16T08:55:55.112Z,56.88
2023-05-16T08:58:22.142Z,56.80
2023-05-16T09:00:49.145Z,56.93
2023-05-16T09:03:16.202Z,56.47
2023-05-16T09:05:43.103Z,55.81
2023-05-16T09:08:10.005Z,55.00
2023-05-16T09:10:36.954Z,53.93
2023-05-16T09:13:04.589Z,53.53
2023-05-16T09:15:32.863Z,52.97
2023-05-16T09:18:03.267Z,52.16
2023-05-16T09:20:30.271Z,51.35
2023-05-16T09:23:00.087Z,50.94
2023-05-16T09:25:30.975Z,50.68
2023-05-16T09:28:00.062Z,50.38
2023-05-16T09:30:34.853Z,50.10
2023-05-16T09:33:02.120Z,49.67
2023-05-16T09:37:59.089Z,49.60
2023-05-16T09:40:26.254Z,49.54
2023-05-16T09:43:06.387Z,49.29
2023-05-16T09:45:34.396Z,49.35
2023-05-16T09:48:05.821Z,49.47
2023-05-16T09:50:34.427Z,49.39
2023-05-16T09:53:02.404Z,49.18
2023-05-16T09:55:29.473Z,49.06
2023-05-16T09:57:56.503Z,48.96
2023-05-16T10:00:23.658Z,49.05
2023-05-16T10:02:50.624Z,49.28
2023-05-16T10:05:18.014Z,49.39
2023-05-16T10:07:44.961Z,49.54
2023-05-16T10:10:11.935Z,49.69
2023-05-16T10:12:38.822Z,49.80
2023-05-16T10:15:06.053Z,49.94
2023-05-16T10:17:34.573Z,48.38
2023-05-16T10:20:06.016Z,46.55
2023-05-16T10:22:36.126Z,45.58
2023-05-16T10:25:34.700Z,45.52
2023-05-16T10:28:01.548Z,46.58
2023-05-16T10:30:28.478Z,47.40
2023-05-16T10:32:57.708Z,47.37
2023-05-16T10:35:24.594Z,47.40
2023-05-16T10:37:51.614Z,47.68
2023-05-16T10:40:18.556Z,47.81
2023-05-16T10:42:59.209Z,48.08
2023-05-16T10:45:26.923Z,48.30
2023-05-16T10:47:55.910Z,48.63
2023-05-16T10:50:36.716Z,48.38
2023-05-16T10:53:19.346Z,48.11
2023-05-16T10:56:04.486Z,48.01
2023-05-16T10:58:31.419Z,48.00
2023-05-16T11:01:17.454Z,48.15
2023-05-16T11:04:00.229Z,48.16
2023-05-16T11:06:35.277Z,48.21
2023-05-16T11:09:11.471Z,48.30
2023-05-16T11:12:03.754Z,48.20
2023-05-16T11:14:34.038Z,48.16
2023-05-16T11:17:17.068Z,48.01
2023-05-16T11:19:49.499Z,47.94
2023-05-16T11:22:24.078Z,47.70
2023-05-16T11:25:02.340Z,47.45
2023-05-16T11:27:47.945Z,47.49
2023-05-16T11:30:17.131Z,47.50
2023-05-16T11:32:45.629Z,47.51
2023-05-16T11:35:15.205Z,47.70
2023-05-16T11:37:42.859Z,47.63
2023-05-16T11:40:11.509Z,47.39
2023-05-16T11:42:43.220Z,47.27
2023-05-16T11:45:21.532Z,47.19
2023-05-16T11:47:48.848Z,47.32
2023-05-16T11:50:17.702Z,47.20
2023-05-16T11:52:46.133Z,47.05
2023-05-16T11:55:15.630Z,46.90
2023-05-16T11:57:46.048Z,46.92
2023-05-16T12:00:18.034Z,46.95
2023-05-16T12:02:49.206Z,46.87
2023-05-16T12:05:17.373Z,46.78
2023-05-16T12:07:45.033Z,46.91
2023-05-16T12:10:15.766Z,46.60
2023-05-16T12:12:44.407Z,46.49
2023-05-16T12:15:11.696Z,46.58
2023-05-16T12:17:40.942Z,46.54
2023-05-16T12:20:14.413Z,46.61
2023-05-16T12:22:44.017Z,46.61
2023-05-16T12:25:22.118Z,46.78
2023-05-16T12:27:49.654Z,46.89
2023-05-16T12:30:21.525Z,46.88
2023-05-16T12:32:56.342Z,46.83
2023-05-16T12:35:24.619Z,46.89
2023-05-16T12:37:52.036Z,46.76
2023-05-16T12:40:20.736Z,46.44
2023-05-16T12:42:56.644Z,46.36
2023-05-16T12:45:23.654Z,46.24
2023-05-16T12:47:51.097Z,46.28
2023-05-16T12:50:18.008Z,46.48
2023-05-16T12:52:52.231Z,46.63
2023-05-16T12:55:22.434Z,46.51
2023-05-16T12:57:51.009Z,46.38
2023-05-16T13:00:19.568Z,46.31
2023-05-16T13:02:47.805Z,46.35
2023-05-16T13:05:15.527Z,46.60
2023-05-16T13:07:43.283Z,47.03
2023-05-16T13:10:11.097Z,47.47
2023-05-16T13:12:39.472Z,47.73
2023-05-16T13:15:10.841Z,47.78
2023-05-16T13:17:38.465Z,47.60
2023-05-16T13:20:09.826Z,47.53
2023-05-16T13:22:37.218Z,47.37
2023-05-16T13:25:08.320Z,47.27
2023-05-16T13:27:35.181Z,47.19
2023-05-16T13:30:05.297Z,46.93
2023-05-16T13:32:32.218Z,46.88
2023-05-16T13:35:00.948Z,46.91
2023-05-16T13:37:27.816Z,46.81
2023-05-16T13:42:23.522Z,46.61
2023-05-16T13:44:50.872Z,46.43
2023-05-16T13:47:17.768Z,46.25
2023-05-16T13:49:47.563Z,45.99
2023-05-16T13:52:15.233Z,45.81
2023-05-16T13:54:42.183Z,45.69
2023-05-16T13:57:09.189Z,45.61
2023-05-16T14:00:10.811Z,45.63
2023-05-16T14:02:26.445Z,45.18
2023-05-16T14:04:53.967Z,44.74
2023-05-16T14:07:20.844Z,44.22
2023-05-16T14:09:47.902Z,44.14
2023-05-16T14:12:14.953Z,43.84
2023-05-16T14:14:42.202Z,43.38
2023-05-16T14:17:09.173Z,43.35
2023-05-16T14:19:36.634Z,43.33
2023-05-16T14:22:03.800Z,43.17
2023-05-16T14:24:31.375Z,43.19
2023-05-16T14:26:58.508Z,43.45
2023-05-16T14:29:25.823Z,43.28
2023-05-16T14:31:53.296Z,43.38
2023-05-16T14:34:20.404Z,43.56
2023-05-16T14:36:47.331Z,43.66
2023-05-16T14:39:14.879Z,43.80
2023-05-16T14:41:42.101Z,43.97
2023-05-16T14:44:08.990Z,44.34
2023-05-16T14:46:38.014Z,44.51
2023-05-16T14:49:05.093Z,44.53
2023-05-16T14:51:32.573Z,44.66
2023-05-16T14:54:00.520Z,44.77
2023-05-16T14:56:28.345Z,44.95
2023-05-16T14:58:55.864Z,44.91
2023-05-16T15:01:23.287Z,44.92
2023-05-16T15:03:55.225Z,44.87
2023-05-16T15:06:24.127Z,44.89
2023-05-16T15:08:51.282Z,44.97
2023-05-16T15:11:18.366Z,44.99
2023-05-16T15:13:45.676Z,45.05
2023-05-16T15:16:12.708Z,45.12
2023-05-16T15:18:40.642Z,45.11
2023-05-16T15:21:07.662Z,45.23
2023-05-16T15:23:34.602Z,45.15
2023-05-16T15:26:01.534Z,45.23
2023-05-16T15:28:28.450Z,45.33
2023-05-16T15:30:55.452Z,45.32
2023-05-16T15:33:22.273Z,45.29
2023-05-16T15:35:50.056Z,45.46
2023-05-16T15:38:16.924Z,45.51
2023-05-16T15:40:43.715Z,45.50
2023-05-16T15:43:10.542Z,45.62
2023-05-16T15:45:40.102Z,45.67
2023-05-16T15:48:07.933Z,45.62
2023-05-16T15:50:34.899Z,45.61
2023-05-16T15:53:01.944Z,45.61
2023-05-16T15:55:29.120Z,45.67
2023-05-16T15:57:58.732Z,45.60
2023-05-16T16:00:26.303Z,45.53
2023-05-16T16:02:54.480Z,45.56
2023-05-16T16:05:21.551Z,45.37
2023-05-16T16:07:48.450Z,45.30
2023-05-16T16:10:15.505Z,45.30
2023-05-16T16:12:42.314Z,45.14
2023-05-16T16:15:10.737Z,45.26
2023-05-16T16:17:37.848Z,45.32
2023-05-16T16:20:05.642Z,45.36
2023-05-16T16:22:32.479Z,45.29
2023-05-16T16:25:00.824Z,45.30
2023-05-16T16:27:27.661Z,45.45
2023-05-16T16:29:54.616Z,45.44
2023-05-16T16:32:21.417Z,45.52
2023-05-16T16:34:48.404Z,45.58
2023-05-16T16:37:15.388Z,45.59
2023-05-16T16:39:43.750Z,45.74
2023-05-16T16:42:10.807Z,45.70
2023-05-16T16:44:37.988Z,45.77
2023-05-16T16:47:05.238Z,45.74
2023-05-16T16:49:33.008Z,45.90
2023-05-16T16:52:00.916Z,46.00
2023-05-16T16:54:28.711Z,46.14
2023-05-16T16:56:56.406Z,46.32
2023-05-16T16:59:23.607Z,46.28
2023-05-16T17:01:50.837Z,46.43
2023-05-16T17:04:17.893Z,46.62
2023-05-16T17:06:48.666Z,46.85
2023-05-16T17:09:18.018Z,46.82
2023-05-16T17:11:46.839Z,47.01
2023-05-16T17:14:14.818Z,47.14
2023-05-16T17:16:44.704Z,47.12
2023-05-16T17:19:12.072Z,47.20
2023-05-16T17:21:40.948Z,47.34
2023-05-16T17:24:09.886Z,47.34
2023-05-16T17:26:37.050Z,47.41
2023-05-16T17:29:05.185Z,47.50
2023-05-16T17:31:32.675Z,47.70
2023-05-16T17:33:59.919Z,48.01
2023-05-16T17:36:28.636Z,48.62
2023-05-16T17:38:55.661Z,49.38
2023-05-16T17:41:22.864Z,49.68
2023-05-16T17:43:49.810Z,49.49
2023-05-16T17:46:16.862Z,49.57
2023-05-16T17:48:44.025Z,49.38
2023-05-16T17:51:13.034Z,49.18
2023-05-16T17:53:39.872Z,49.24
2023-05-16T17:56:07.768Z,49.33
2023-05-16T17:58:35.238Z,49.37
2023-05-16T18:01:05.107Z,49.58
2023-05-16T18:03:32.170Z,49.64
2023-05-16T18:06:02.888Z,49.76
2023-05-16T18:08:33.067Z,49.95
2023-05-16T18:11:00.040Z,50.09
2023-05-16T18:13:30.335Z,50.17
2023-05-16T18:15:57.651Z,50.21
2023-05-16T18:18:24.670Z,50.43
2023-05-16T18:20:52.796Z,50.98
2023-05-16T18:23:20.650Z,51.08
2023-05-16T18:25:47.671Z,51.52
2023-05-16T18:28:14.506Z,52.01
2023-05-16T18:30:41.676Z,52.37
2023-05-16T18:33:08.672Z,52.14
2023-05-16T18:35:37.524Z,51.64
2023-05-16T18:38:04.677Z,51.55
2023-05-16T18:40:31.508Z,51.43
2023-05-16T18:42:58.845Z,51.33
2023-05-16T18:45:26.508Z,51.37
2023-05-16T18:47:53.865Z,51.31
2023-05-16T18:50:22.118Z,51.23
2023-05-16T18:52:49.623Z,51.10
2023-05-16T18:55:16.703Z,51.09
2023-05-16T18:57:45.357Z,51.18
2023-05-16T19:00:13.343Z,51.05
2023-05-16T19:02:42.371Z,51.06
2023-05-16T19:05:10.775Z,51.00
2023-05-16T19:07:38.023Z,51.05
2023-05-16T19:10:05.707Z,51.10
2023-05-16T19:12:32.650Z,51.05
2023-05-16T19:14:59.524Z,51.05
2023-05-16T19:17:26.428Z,51.05
2023-05-16T19:19:53.401Z,51.07
2023-05-16T19:22:20.751Z,51.06
2023-05-16T19:24:47.574Z,51.21
2023-05-16T19:27:14.438Z,51.24
2023-05-16T19:29:41.347Z,51.31
2023-05-16T19:32:08.294Z,51.39
2023-05-16T19:34:35.601Z,51.37
2023-05-16T19:37:03.559Z,51.37
2023-05-16T19:39:32.786Z,51.40
2023-05-16T19:42:07.095Z,51.45
2023-05-16T19:44:35.245Z,51.57
2023-05-16T19:47:02.099Z,51.54
2023-05-16T19:49:40.365Z,51.64
2023-05-16T19:52:10.451Z,51.68
2023-05-16T19:54:37.339Z,51.73
2023-05-16T19:57:04.458Z,51.76
2023-05-16T19:59:36.249Z,51.83
2023-05-16T20:02:04.437Z,51.76
2023-05-16T20:04:31.452Z,51.89
2023-05-16T20:06:58.359Z,52.02
2023-05-16T20:09:25.415Z,52.00
2023-05-16T20:11:53.686Z,52.02
2023-05-16T20:14:20.849Z,52.06
2023-05-16T20:16:47.798Z,52.13
2023-05-16T20:19:15.389Z,52.18
2023-05-16T20:21:44.227Z,52.26
2023-05-16T20:24:11.156Z,52.37
2023-05-16T20:26:40.736Z,52.39
2023-05-16T20:29:07.629Z,52.46
2023-05-16T20:31:34.595Z,52.51
2023-05-16T20:34:01.462Z,52.53
2023-05-16T20:36:28.997Z,52.75
2023-05-16T20:38:55.827Z,52.87
2023-05-16T20:41:22.662Z,52.83
2023-05-16T20:43:50.752Z,52.78
2023-05-16T20:46:17.638Z,52.99
2023-05-16T20:48:44.474Z,52.94
2023-05-16T20:51:11.287Z,53.00
2023-05-16T20:53:38.079Z,53.19
2023-05-16T20:56:05.362Z,53.31
2023-05-16T20:58:32.212Z,53.27
2023-05-16T21:00:59.106Z,53.37
2023-05-16T21:03:25.904Z,53.43
2023-05-16T21:05:52.789Z,53.46
2023-05-16T21:08:19.728Z,53.85
2023-05-16T21:10:46.552Z,53.86
2023-05-16T21:13:13.348Z,54.08
2023-05-16T21:15:40.222Z,53.93
2023-05-16T21:18:07.251Z,53.97
2023-05-16T21:20:34.153Z,54.11
2023-05-16T21:23:01.157Z,54.37
2023-05-16T21:25:28.262Z,54.30
2023-05-16T21:27:55.295Z,54.28
2023-05-16T21:30:22.202Z,54.52
2023-05-16T21:32:49.173Z,54.53
2023-05-16T21:35:16.152Z,54.37
2023-05-16T21:37:43.031Z,54.46
2023-05-16T21:40:10.265Z,54.51
2023-05-16T21:42:37.126Z,54.69
2023-05-16T21:45:04.331Z,54.50
2023-05-16T21:47:31.294Z,54.65
2023-05-16T21:49:58.087Z,54.63
2023-05-16T21:52:26.038Z,54.72
2023-05-16T21:54:52.835Z,54.85
2023-05-16T21:57:20.014Z,55.11
2023-05-16T21:59:50.320Z,55.14
2023-05-16T22:02:22.579Z,55.22
2023-05-16T22:04:50.100Z,55.34
2023-05-16T22:07:16.904Z,55.27
2023-05-16T22:09:43.704Z,55.40
2023-05-16T22:12:10.505Z,55.51
2023-05-16T22:14:37.319Z,55.68
2023-05-16T22:17:04.191Z,55.72
2023-05-16T22:19:31.065Z,55.81
2023-05-16T22:21:57.898Z,55.92
2023-05-16T22:24:24.692Z,55.95
2023-05-16T22:26:51.520Z,55.94
2023-05-16T22:29:18.463Z,56.08
2023-05-16T22:31:45.268Z,56.11
2023-05-16T22:34:12.136Z,56.16
2023-05-16T22:36:39.396Z,56.24
2023-05-16T22:39:07.172Z,56.39
2023-05-16T22:41:33.999Z,56.38
2023-05-16T22:44:00.828Z,56.29
2023-05-16T22:46:27.652Z,56.41
2023-05-16T22:48:54.614Z,56.55
2023-05-16T22:51:21.492Z,56.49
2023-05-16T22:53:48.267Z,56.43
2023-05-16T22:56:15.143Z,56.42
2023-05-16T22:58:42.103Z,56.46
2023-05-16T23:01:09.073Z,56.45
2023-05-16T23:03:36.248Z,56.34
2023-05-16T23:06:03.714Z,56.36
2023-05-16T23:08:30.547Z,56.41
2023-05-16T23:10:57.466Z,56.39
2023-05-16T23:13:24.313Z,56.36
2023-05-16T23:15:51.161Z,56.41
2023-05-16T23:18:18.035Z,56.40
2023-05-16T23:20:44.999Z,56.25
2023-05-16T23:23:11.768Z,56.52
2023-05-16T23:25:38.637Z,56.46
2023-05-16T23:28:05.469Z,56.63
2023-05-16T23:30:32.222Z,56.60
2023-05-16T23:32:59.167Z,56.70
2023-05-16T23:35:26.350Z,56.85
2023-05-16T23:37:53.844Z,56.77
2023-05-16T23:40:20.699Z,56.82
2023-05-16T23:42:47.559Z,56.95
2023-05-16T23:45:14.337Z,56.97
2023-05-16T23:47:41.361Z,56.95
2023-05-16T23:50:08.761Z,56.96
2023-05-16T23:52:35.628Z,57.06
2023-05-16T23:55:02.414Z,56.98
2023-05-16T23:57:29.324Z,56.95
2023-05-16T23:59:56.363Z,57.11
